Time;durP1;ratioP1;P1;durP2;ratioP2;P2;SDS_P1;SDS_P2;PMS_P1;PMS_P2;Temp;Humidity;BMP_temperature;BMP_pressure;BME280_temperature;BME280_humidity;BME280_pressure;Samples;Min_cycle;Max_cycle;Signal;HPM_P1;HPM_P2
2022/12/04 00:00:29;;;;;;;;;;;0.40;99.90;;;-0.82;100.00;95256.38;10487424;28;3131;-66
2022/12/04 00:05:42;;;;;;;;;;;0.40;99.90;;;-0.82;100.00;95268.78;10512699;28;2768;-64
2022/12/04 00:10:44;;;;;;;;;;;0.30;99.90;;;-0.65;100.00;95264.56;10513511;28;3133;-67
2022/12/04 00:15:47;;;;;;;;;;;0.40;99.90;;;-0.50;100.00;95260.81;10512102;28;3175;-65
2022/12/04 00:20:50;;;;;;;;;;;0.50;99.90;;;-0.51;100.00;95261.78;10506012;28;3159;-69
2022/12/04 00:25:53;;;;;;;;;;;0.60;99.90;;;-0.55;100.00;95264.06;10505621;28;3175;-73
2022/12/04 00:30:55;;;;;;;;;;;0.60;99.90;;;-0.58;100.00;95252.09;10508788;28;3283;-65
2022/12/04 00:35:58;;;;;;;;;;;0.60;99.90;;;-0.46;100.00;95260.13;10504913;28;3127;-66
2022/12/04 00:41:05;;;;;;;;;;;0.60;99.90;;;-0.61;100.00;95257.81;10509961;28;3120;-65
2022/12/04 00:46:08;;;;;;;;;;;0.60;99.90;;;-0.77;100.00;95263.63;10511450;28;2970;-68
2022/12/04 00:51:11;;;;;;;;;;;0.50;99.90;;;-0.87;100.00;95266.78;10513155;28;3239;-66
2022/12/04 00:56:13;;;;;;;;;;;0.40;99.90;;;-0.76;100.00;95267.91;10505875;28;3136;-66
2022/12/04 01:01:16;;;;;;;;;;;0.40;99.90;;;-0.71;100.00;95268.06;10509450;28;2786;-65
2022/12/04 01:06:19;;;;;;;;;;;0.70;99.90;;;-0.75;100.00;95261.59;10508986;28;3199;-65
2022/12/04 01:11:22;;;;;;;;;;;0.40;99.90;;;-0.84;100.00;95263.69;10515868;28;3167;-66
2022/12/04 01:16:24;;;;;;;;;;;0.30;99.90;;;-0.68;100.00;95258.91;10510393;28;2699;-66
2022/12/04 01:21:27;;;;;;;;;;;0.40;99.90;;;-0.76;100.00;95265.28;10505014;28;3077;-64
2022/12/04 01:26:30;;;;;;;;;;;0.40;99.90;;;-0.84;100.00;95278.72;10507644;28;3176;-66
2022/12/04 01:31:38;;;;;;;;;;;0.50;99.90;;;-0.85;100.00;95277.09;10507374;28;3182;-65
2022/12/04 01:36:41;;;;;;;;;;;0.30;99.90;;;-0.80;100.00;95263.28;10499739;28;3116;-65
2022/12/04 01:41:43;;;;;;;;;;;0.30;99.90;;;-0.74;100.00;95268.50;10508465;28;3127;-66
2022/12/04 01:46:46;;;;;;;;;;;0.40;99.90;;;-0.66;100.00;95276.13;10504778;28;3190;-66
2022/12/04 01:51:49;;;;;;;;;;;0.40;99.90;;;-0.71;100.00;95278.63;10506848;28;3234;-65
2022/12/04 01:56:51;;;;;;;;;;;0.50;99.90;;;-0.64;100.00;95268.00;10503458;28;3135;-65
2022/12/04 02:01:54;;;;;;;;;;;0.40;99.90;;;-0.78;100.00;95245.38;10505798;28;2797;-65
2022/12/04 02:06:57;;;;;;;;;;;0.40;99.90;;;-0.90;100.00;95232.06;10505844;28;3191;-65
2022/12/04 02:12:00;;;;;;;;;;;0.30;99.90;;;-0.79;100.00;95241.94;10508181;28;2749;-65
2022/12/04 02:17:02;;;;;;;;;;;0.40;99.90;;;-0.94;100.00;95257.28;10510070;28;3096;-65
2022/12/04 02:22:05;;;;;;;;;;;0.30;99.90;;;-0.99;100.00;95252.66;10514346;28;3323;-66
2022/12/04 02:27:08;;;;;;;;;;;0.20;99.90;;;-0.94;100.00;95230.91;10500380;28;3143;-65
2022/12/04 02:32:11;;;;;;;;;;;0.30;99.90;;;-1.03;100.00;95232.19;10510660;28;3193;-65
2022/12/04 02:37:14;;;;;;;;;;;0.20;99.90;;;-0.89;100.00;95228.41;10520178;28;2745;-65
2022/12/04 02:42:16;;;;;;;;;;;0.20;99.90;;;-0.84;100.00;95215.38;10517821;28;3789;-68
2022/12/04 02:47:19;;;;;;;;;;;0.30;99.90;;;-0.85;100.00;95209.31;10518976;28;3203;-64
2022/12/04 02:52:22;;;;;;;;;;;0.30;99.90;;;-0.84;100.00;95194.28;10520080;28;3235;-65
2022/12/04 02:57:24;;;;;;;;;;;0.30;99.90;;;-0.88;100.00;95207.09;10514403;28;3148;-64
2022/12/04 03:02:27;;;;;;;;;;;0.30;99.90;;;-0.88;100.00;95195.75;10513055;28;3196;-68
2022/12/04 03:07:30;;;;;;;;;;;0.30;99.90;;;-0.95;100.00;95202.91;10516975;28;3183;-69
2022/12/04 03:12:34;;;;;;;;;;;0.30;99.90;;;-1.00;100.00;95200.91;10518096;28;2750;-65
2022/12/04 03:17:37;;;;;;;;;;;0.20;99.90;;;-1.02;100.00;95205.56;10518799;28;3262;-65
2022/12/04 03:22:39;;;;;;;;;;;0.10;99.90;;;-0.98;100.00;95196.22;10511866;28;3143;-65
2022/12/04 03:27:42;;;;;;;;;;;0.20;99.90;;;-1.11;100.00;95199.78;10513732;28;2694;-64
2022/12/04 03:32:45;;;;;;;;;;;0.10;99.90;;;-0.95;100.00;95197.63;10515560;28;3195;-63
2022/12/04 03:37:47;;;;;;;;;;;0.10;99.90;;;-0.89;100.00;95207.31;10513986;28;2702;-64
2022/12/04 03:42:50;;;;;;;;;;;0.20;99.90;;;-1.06;100.00;95208.88;10520489;28;2822;-71
2022/12/04 03:47:53;;;;;;;;;;;0.20;99.90;;;-1.01;100.00;95194.03;10520020;28;3282;-77
2022/12/04 03:52:55;;;;;;;;;;;0.10;99.90;;;-1.03;100.00;95200.53;10504498;28;3295;-65
2022/12/04 03:57:58;;;;;;;;;;;0.20;99.90;;;-0.95;100.00;95193.16;10517264;28;3215;-65
2022/12/04 04:03:01;;;;;;;;;;;0.10;99.90;;;-0.91;100.00;95188.25;10509421;28;3124;-65
2022/12/04 04:24:15;;;;;;;;;;;0.40;99.90;;;-0.87;100.00;95171.78;10502160;28;3120;-64
2022/12/04 04:29:17;;;;;;;;;;;0.40;99.90;;;-0.87;100.00;95173.59;10517383;28;3250;-72
2022/12/04 04:34:20;;;;;;;;;;;0.30;99.90;;;-0.89;100.00;95181.75;10504747;28;2750;-65
2022/12/04 04:39:23;;;;;;;;;;;0.30;99.90;;;-0.81;100.00;95185.94;10525055;28;2624;-64
2022/12/04 04:44:28;;;;;;;;;;;0.40;99.90;;;-0.94;100.00;95172.88;10501654;28;3265;-66
2022/12/04 04:49:31;;;;;;;;;;;0.30;99.90;;;-0.84;100.00;95167.88;10504395;28;3174;-66
2022/12/04 04:54:34;;;;;;;;;;;0.20;99.90;;;-0.68;100.00;95177.91;10500048;28;3354;-66
2022/12/04 04:59:36;;;;;;;;;;;0.40;99.90;;;-0.62;100.00;95170.94;10517781;28;3199;-65
2022/12/04 05:04:39;;;;;;;;;;;0.50;99.90;;;-0.58;100.00;95166.81;10508884;28;3124;-64
2022/12/04 05:09:42;;;;;;;;;;;0.50;99.90;;;-0.60;100.00;95177.59;10491578;28;2777;-64
2022/12/04 05:14:44;;;;;;;;;;;1.00;99.90;;;-0.58;100.00;95183.47;10513598;28;3155;-65
2022/12/04 05:19:53;;;;;;;;;;;0.50;99.90;;;-0.55;100.00;95169.03;10503633;28;3155;-65
2022/12/04 05:24:56;;;;;;;;;;;0.60;99.90;;;-0.80;100.00;95161.16;10502831;28;3186;-66
2022/12/04 05:29:59;;;;;;;;;;;0.50;99.90;;;-0.75;100.00;95166.59;10519609;28;2666;-65
2022/12/04 05:35:04;;;;;;;;;;;0.50;99.90;;;-0.72;100.00;95171.44;10518044;28;2866;-65
2022/12/04 05:40:12;;;;;;;;;;;0.40;99.90;;;-0.70;100.00;95173.84;10511949;28;3217;-65
2022/12/04 05:45:15;;;;;;;;;;;0.50;99.90;;;-0.66;100.00;95175.84;10503444;28;3358;-66
2022/12/04 05:50:18;;;;;;;;;;;0.50;99.90;;;-0.67;100.00;95187.44;10513743;28;3171;-66
2022/12/04 05:55:21;;;;;;;;;;;0.50;99.90;;;-0.53;100.00;95169.63;10505689;28;3268;-66
2022/12/04 06:00:23;;;;;;;;;;;0.60;99.90;;;-0.47;100.00;95173.22;10513670;28;3210;-67
2022/12/04 06:05:26;;;;;;;;;;;0.70;99.90;;;-0.47;100.00;95154.75;10508382;28;3116;-67
2022/12/04 06:10:29;;;;;;;;;;;0.70;99.90;;;-0.48;100.00;95166.31;10505392;28;2714;-66
2022/12/04 06:15:31;;;;;;;;;;;0.60;99.90;;;-0.46;100.00;95153.72;10512795;28;3202;-67
2022/12/04 06:20:34;;;;;;;;;;;0.70;99.90;;;-0.61;100.00;95157.53;10505185;28;3237;-63
2022/12/04 06:25:37;;;;;;;;;;;0.60;99.90;;;-0.49;100.00;95164.72;10513041;28;2718;-64
2022/12/04 06:30:39;;;;;;;;;;;0.60;99.90;;;-0.64;100.00;95165.06;10515657;28;3120;-66
2022/12/04 06:35:42;;;;;;;;;;;0.50;99.90;;;-0.60;100.00;95174.97;10513284;28;3177;-70
2022/12/04 06:40:45;;;;;;;;;;;0.50;99.90;;;-0.52;100.00;95175.69;10515844;28;3262;-66
2022/12/04 06:45:47;;;;;;;;;;;0.60;99.90;;;-0.74;100.00;95160.28;10514590;28;3209;-65
2022/12/04 06:50:51;;;;;;;;;;;0.60;99.90;;;-0.42;100.00;95176.00;10529468;28;3186;-65
2022/12/04 06:55:53;;;;;;;;;;;0.60;99.90;;;-0.44;100.00;95172.78;10504991;28;3246;-65
2022/12/04 07:00:56;;;;;;;;;;;0.70;99.90;;;-0.61;100.00;95160.16;10519451;28;3424;-66
2022/12/04 07:06:00;;;;;;;;;;;0.60;99.90;;;-0.50;100.00;95163.13;10513270;28;3188;-66
2022/12/04 07:11:02;;;;;;;;;;;0.60;99.90;;;-0.53;100.00;95174.09;10520587;28;3165;-70
2022/12/04 07:16:05;;;;;;;;;;;0.70;99.90;;;-0.46;100.00;95194.13;10492578;28;3302;-73
2022/12/04 07:21:08;;;;;;;;;;;0.70;99.90;;;-0.28;100.00;95172.19;10502760;28;3109;-65
2022/12/04 07:26:11;;;;;;;;;;;0.80;99.90;;;-0.36;100.00;95183.88;10506921;28;3319;-65
2022/12/04 07:31:13;;;;;;;;;;;0.80;99.90;;;-0.56;100.00;95178.00;10502495;28;3311;-66
2022/12/04 07:36:16;;;;;;;;;;;0.70;99.90;;;-0.28;100.00;95177.47;10512664;28;2911;-65
2022/12/04 07:41:20;;;;;;;;;;;0.80;99.90;;;-0.21;100.00;95195.91;10511506;28;3331;-66
2022/12/04 07:46:23;;;;;;;;;;;0.90;99.90;;;-0.25;100.00;95197.34;10509704;28;3263;-65
2022/12/04 07:51:25;;;;;;;;;;;0.90;99.90;;;-0.32;100.00;95176.28;10512527;28;2863;-67
2022/12/04 07:56:28;;;;;;;;;;;0.90;99.90;;;-0.26;100.00;95185.97;10507115;28;3323;-65
2022/12/04 08:01:31;;;;;;;;;;;1.00;99.90;;;-0.08;100.00;95182.53;10506807;28;3652;-65
2022/12/04 08:06:34;;;;;;;;;;;0.90;99.90;;;0.02;100.00;95182.03;10527162;28;3212;-66
2022/12/04 08:11:36;;;;;;;;;;;1.00;99.90;;;0.17;100.00;95174.50;10504683;28;3315;-66
2022/12/04 08:16:39;;;;;;;;;;;1.10;99.90;;;0.18;100.00;95179.56;10521861;28;3350;-66
2022/12/04 08:21:42;;;;;;;;;;;1.20;99.90;;;0.12;100.00;95187.56;10526960;28;3290;-68
2022/12/04 08:26:45;;;;;;;;;;;1.20;99.90;;;0.06;100.00;95172.59;10520359;28;3374;-65
2022/12/04 08:31:47;;;;;;;;;;;1.20;99.90;;;0.22;100.00;95172.81;10508398;28;3370;-65
2022/12/04 08:36:50;;;;;;;;;;;1.30;99.90;;;0.23;100.00;95173.59;10510324;28;3311;-65
2022/12/04 08:41:53;;;;;;;;;;;1.30;99.90;;;0.40;100.00;95185.19;10505302;28;3354;-66
2022/12/04 08:46:58;;;;;;;;;;;1.40;99.90;;;0.30;100.00;95190.19;10510169;28;3346;-66
2022/12/04 08:52:01;;;;;;;;;;;1.40;99.90;;;0.30;100.00;95189.38;10497149;28;3358;-65
2022/12/04 08:57:04;;;;;;;;;;;1.40;99.90;;;0.39;100.00;95193.34;10507580;28;3294;-65
2022/12/04 09:02:06;;;;;;;;;;;1.40;99.90;;;0.70;100.00;95192.28;10502176;28;3672;-64
2022/12/04 09:07:09;;;;;;;;;;;1.60;99.90;;;0.53;100.00;95178.91;10515964;28;2865;-65
2022/12/04 09:12:12;;;;;;;;;;;1.70;99.90;;;0.40;100.00;95177.25;10515530;28;2863;-65
2022/12/04 09:17:17;;;;;;;;;;;1.60;99.90;;;0.76;100.00;95188.72;10505881;28;3379;-66
2022/12/04 09:22:29;;;;;;;;;;;1.70;99.90;;;0.89;100.00;95193.84;10514866;28;3330;-67
2022/12/04 09:27:53;;;;;;;;;;;1.80;99.90;;;1.00;100.00;95189.59;10518339;28;3315;-71
2022/12/04 09:32:55;;;;;;;;;;;2.00;99.90;;;1.05;100.00;95177.28;10506797;28;2838;-70
2022/12/04 09:37:58;;;;;;;;;;;2.10;99.90;;;1.19;100.00;95161.19;10511609;28;3311;-73
2022/12/04 09:43:01;;;;;;;;;;;2.10;99.90;;;1.37;100.00;95145.19;10510400;28;3543;-68
2022/12/04 09:48:03;;;;;;;;;;;2.30;99.90;;;1.48;100.00;95139.06;10510135;28;3331;-67
2022/12/04 09:53:06;;;;;;;;;;;2.40;99.90;;;1.43;100.00;95123.06;10518465;28;3450;-67
2022/12/04 09:58:09;;;;;;;;;;;2.50;99.90;;;1.66;100.00;95155.88;10517611;28;3238;-66
2022/12/04 10:03:14;;;;;;;;;;;2.60;99.90;;;1.60;100.00;95147.00;10519659;28;3361;-65
2022/12/04 10:08:17;;;;;;;;;;;2.60;99.90;;;1.75;100.00;95144.66;10506078;28;3303;-65
2022/12/04 10:13:20;;;;;;;;;;;2.70;99.90;;;1.60;100.00;95117.88;10513819;28;3339;-67
2022/12/04 10:18:23;;;;;;;;;;;2.70;99.90;;;1.61;100.00;95107.03;10514296;28;3303;-66
2022/12/04 10:23:25;;;;;;;;;;;2.70;99.90;;;1.84;100.00;95089.44;10519557;28;3414;-66
2022/12/04 10:28:28;;;;;;;;;;;2.80;99.90;;;1.71;100.00;95095.81;10513686;28;2868;-66
2022/12/04 10:33:31;;;;;;;;;;;2.80;99.90;;;1.58;100.00;95123.38;10502179;28;3384;-66
2022/12/04 10:38:33;;;;;;;;;;;2.70;99.90;;;1.46;100.00;95096.09;10495184;28;3649;-68
2022/12/04 10:43:36;;;;;;;;;;;2.70;99.90;;;1.33;100.00;95083.13;10503172;28;3338;-72
2022/12/04 10:48:39;;;;;;;;;;;2.50;99.90;;;1.66;100.00;95076.41;10509534;28;3379;-72
2022/12/04 10:53:42;;;;;;;;;;;2.60;99.90;;;1.68;100.00;95064.50;10504398;28;3302;-69
2022/12/04 10:58:48;;;;;;;;;;;2.70;99.90;;;1.82;100.00;95059.75;10519297;28;3410;-68
2022/12/04 11:03:51;;;;;;;;;;;2.80;99.90;;;1.70;100.00;95056.31;10507539;28;3005;-68
2022/12/04 11:08:54;;;;;;;;;;;2.80;99.90;;;1.66;100.00;95044.59;10506973;28;3344;-69
2022/12/04 11:13:56;;;;;;;;;;;2.90;99.90;;;1.68;100.00;95053.13;10487944;28;3372;-68
2022/12/04 11:18:59;;;;;;;;;;;2.80;99.90;;;1.48;100.00;95066.75;10496970;28;2887;-69
2022/12/04 11:24:02;;;;;;;;;;;2.70;99.90;;;1.32;100.00;95065.63;10506207;28;2891;-69
2022/12/04 11:29:05;;;;;;;;;;;2.60;99.90;;;1.57;100.00;95095.28;10517883;28;3362;-70
2022/12/04 11:34:08;;;;;;;;;;;2.60;99.90;;;1.96;100.00;95087.56;10523976;28;3371;-69
2022/12/04 11:39:11;;;;;;;;;;;2.80;99.90;;;2.25;100.00;95069.81;10514659;28;2898;-69
2022/12/04 11:44:15;;;;;;;;;;;3.10;99.90;;;2.59;100.00;95073.31;10532131;28;3311;-69
2022/12/04 11:49:18;;;;;;;;;;;3.40;99.90;;;2.69;100.00;95057.56;10509957;28;3295;-70
2022/12/04 11:54:21;;;;;;;;;;;3.60;99.90;;;2.49;100.00;95046.63;10525765;28;3276;-67
2022/12/04 11:59:24;;;;;;;;;;;3.60;99.90;;;2.47;100.00;95043.38;10516638;28;2649;-68
2022/12/04 12:04:27;;;;;;;;;;;3.50;99.90;;;2.56;100.00;95039.31;10518373;28;3482;-69
2022/12/04 12:09:30;;;;;;;;;;;3.60;99.90;;;2.58;100.00;95023.94;10495713;28;3342;-70
2022/12/04 12:14:33;;;;;;;;;;;3.60;99.90;;;2.29;100.00;95009.13;10517605;28;3640;-68
2022/12/04 12:19:36;;;;;;;;;;;3.40;99.90;;;2.33;100.00;95020.88;10509120;28;3267;-68
2022/12/04 12:24:41;;;;;;;;;;;3.40;99.90;;;2.39;100.00;95018.06;10501503;28;2889;-69
2022/12/04 12:29:48;;;;;;;;;;;3.40;99.90;;;2.12;100.00;95006.47;10514217;28;3315;-71
2022/12/04 12:34:51;;;;;;;;;;;3.40;99.90;;;1.83;100.00;95014.44;10510338;28;3316;-66
2022/12/04 12:39:53;;;;;;;;;;;3.10;99.90;;;1.78;100.00;95011.72;10509771;28;3330;-65
2022/12/04 12:44:57;;;;;;;;;;;3.00;99.90;;;1.99;100.00;95012.88;10517347;28;2879;-67
2022/12/04 12:50:00;;;;;;;;;;;3.10;99.90;;;2.01;100.00;95013.44;10512481;28;3334;-65
2022/12/04 12:55:03;;;;;;;;;;;3.10;99.90;;;2.25;100.00;95021.28;10519183;28;2946;-66
2022/12/04 13:00:06;;;;;;;;;;;3.20;99.90;;;2.39;100.00;95017.28;10502493;28;3276;-67
2022/12/04 13:05:09;;;;;;;;;;;3.40;99.90;;;2.17;100.00;95004.72;10521635;28;3438;-68
2022/12/04 13:10:12;;;;;;;;;;;3.40;99.90;;;2.13;100.00;94994.84;10510719;28;3520;-68
2022/12/04 13:15:15;;;;;;;;;;;3.30;99.90;;;1.90;100.00;94993.09;10507214;28;2995;-66
2022/12/04 13:20:18;;;;;;;;;;;3.20;99.90;;;1.90;100.00;94972.69;10511265;28;3319;-67
2022/12/04 13:25:20;;;;;;;;;;;3.10;99.90;;;2.15;100.00;94985.59;10515710;28;3291;-69
2022/12/04 13:30:23;;;;;;;;;;;3.10;99.90;;;2.17;100.00;94982.72;10490874;28;3282;-68
2022/12/04 13:35:26;;;;;;;;;;;3.20;99.90;;;2.26;100.00;94991.06;10513886;28;3439;-69
2022/12/04 13:40:28;;;;;;;;;;;3.30;99.90;;;2.37;100.00;94998.16;10516045;28;3289;-68
2022/12/04 13:45:32;;;;;;;;;;;3.40;99.90;;;2.54;100.00;94993.63;10518680;28;3318;-72
2022/12/04 13:50:35;;;;;;;;;;;3.50;99.90;;;2.69;100.00;95001.84;10513914;28;2936;-69
2022/12/04 13:55:38;;;;;;;;;;;3.60;99.90;;;2.61;100.00;94988.97;10517355;28;3314;-67
2022/12/04 14:00:41;;;;;;;;;;;3.70;99.90;;;2.71;100.00;94999.72;10511344;28;3338;-66
2022/12/04 14:05:44;;;;;;;;;;;3.70;99.90;;;2.74;100.00;94997.66;10493735;28;3434;-71
2022/12/04 14:10:46;;;;;;;;;;;3.70;99.90;;;2.60;100.00;95005.13;10474954;28;3284;-69
2022/12/04 14:15:49;;;;;;;;;;;3.70;99.90;;;2.49;100.00;94990.91;10460688;28;3257;-70
2022/12/04 14:20:52;;;;;;;;;;;3.60;99.90;;;2.46;100.00;94985.28;10466572;28;3330;-70
2022/12/04 14:25:56;;;;;;;;;;;3.50;99.90;;;2.50;100.00;94987.22;10456929;28;3393;-79
2022/12/04 14:31:09;;;;;;;;;;;3.50;99.90;;;2.31;100.00;94988.50;10456083;28;3320;-78
2022/12/04 14:36:12;;;;;;;;;;;3.50;99.90;;;2.40;100.00;95011.72;10470477;28;3339;-68
2022/12/04 14:41:14;;;;;;;;;;;3.40;99.90;;;2.52;100.00;95001.03;10468353;28;3442;-69
2022/12/04 14:46:17;;;;;;;;;;;3.50;99.90;;;2.60;100.00;95013.06;10460779;28;3300;-68
2022/12/04 14:51:20;;;;;;;;;;;3.60;99.90;;;2.62;100.00;95005.69;10446331;28;3252;-68
2022/12/04 14:56:22;;;;;;;;;;;3.70;99.90;;;2.43;100.00;94986.56;10466128;28;3265;-66
2022/12/04 15:01:25;;;;;;;;;;;3.70;99.90;;;2.60;100.00;94984.69;10467076;28;3394;-69
2022/12/04 15:06:31;;;;;;;;;;;3.60;99.90;;;2.62;100.00;94987.94;10514901;28;3794;-69
2022/12/04 15:16:54;;;;;;;;;;;3.70;99.90;;;2.64;100.00;95020.31;10521299;28;3273;-68
2022/12/04 15:21:58;;;;;;;;;;;3.70;99.90;;;2.67;100.00;95025.16;10515010;28;3305;-70
2022/12/04 15:27:01;;;;;;;;;;;3.70;99.90;;;2.62;100.00;95022.44;10512906;28;3246;-71
2022/12/04 15:32:04;;;;;;;;;;;3.70;99.90;;;2.59;100.00;95028.19;10518209;28;3304;-68
2022/12/04 15:37:07;;;;;;;;;;;3.60;99.90;;;2.47;100.00;95046.03;10520297;28;3321;-68
2022/12/04 15:42:09;;;;;;;;;;;3.60;99.90;;;2.35;100.00;95047.97;10521307;28;3274;-69
2022/12/04 15:47:13;;;;;;;;;;;3.50;99.90;;;2.36;100.00;95065.50;10523694;28;3270;-67
2022/12/04 15:52:16;;;;;;;;;;;3.60;99.90;;;2.26;100.00;95054.72;10513222;28;3317;-68
2022/12/04 15:57:18;;;;;;;;;;;3.40;99.90;;;2.09;100.00;95066.06;10517044;28;3266;-68
2022/12/04 16:02:24;;;;;;;;;;;3.30;99.90;;;2.13;100.00;95071.72;10522711;28;3257;-71
2022/12/04 16:07:26;;;;;;;;;;;3.20;99.90;;;2.04;100.00;95081.91;10520702;28;3326;-66
2022/12/04 16:12:29;;;;;;;;;;;3.10;99.90;;;2.03;100.00;95082.94;10512342;28;3303;-68
2022/12/04 16:17:32;;;;;;;;;;;3.10;99.90;;;1.95;100.00;95082.50;10513893;28;2843;-69
2022/12/04 16:22:35;;;;;;;;;;;3.10;99.90;;;2.00;100.00;95088.72;10516799;28;3407;-68
2022/12/04 16:27:37;;;;;;;;;;;3.10;99.90;;;1.85;100.00;95089.25;10514262;28;2898;-68
2022/12/04 16:32:40;;;;;;;;;;;3.00;99.90;;;1.85;100.00;95097.19;10523021;28;3243;-68
2022/12/04 16:37:45;;;;;;;;;;;3.00;99.90;;;1.82;100.00;95094.19;10523825;28;3300;-69
2022/12/04 16:42:47;;;;;;;;;;;3.00;99.90;;;1.77;100.00;95094.09;10511566;28;3351;-68
2022/12/04 16:47:51;;;;;;;;;;;2.90;99.90;;;1.66;100.00;95093.09;10513969;28;2887;-68
2022/12/04 16:52:53;;;;;;;;;;;2.80;99.90;;;1.61;100.00;95088.50;10514697;28;3321;-68
2022/12/04 16:57:56;;;;;;;;;;;2.80;99.90;;;1.52;100.00;95104.97;10509926;28;3318;-68
2022/12/04 17:02:59;;;;;;;;;;;2.60;99.90;;;1.54;100.00;95101.06;10511670;28;3319;-69
2022/12/04 17:08:01;;;;;;;;;;;2.60;99.90;;;1.63;100.00;95104.94;10519086;28;3347;-67
2022/12/04 17:13:04;;;;;;;;;;;2.60;99.90;;;1.69;100.00;95099.75;10517184;28;3338;-67
2022/12/04 17:18:07;;;;;;;;;;;2.70;99.90;;;1.67;100.00;95096.53;10520054;28;3313;-66
2022/12/04 17:23:16;;;;;;;;;;;2.80;99.90;;;1.75;100.00;95106.78;10514189;28;2867;-67
2022/12/04 17:28:19;;;;;;;;;;;2.80;99.90;;;1.81;100.00;95100.53;10508405;28;3314;-72
2022/12/04 17:33:23;;;;;;;;;;;2.80;99.90;;;1.72;100.00;95100.13;10504354;28;3255;-68
2022/12/04 17:38:26;;;;;;;;;;;2.90;99.90;;;1.68;100.00;95100.81;10518512;28;3299;-68
2022/12/04 17:43:34;;;;;;;;;;;2.80;99.90;;;1.79;100.00;95102.63;10515169;28;2843;-68
2022/12/04 17:48:37;;;;;;;;;;;2.80;99.90;;;1.79;100.00;95107.94;10509398;28;3299;-68
2022/12/04 17:53:40;;;;;;;;;;;2.90;99.90;;;1.95;100.00;95116.97;10520188;28;2879;-70
2022/12/04 17:58:42;;;;;;;;;;;2.90;99.90;;;1.84;100.00;95116.75;10492507;28;3302;-68
2022/12/04 18:03:45;;;;;;;;;;;2.90;99.90;;;1.75;100.00;95112.06;10502513;28;3264;-77
2022/12/04 18:08:48;;;;;;;;;;;2.80;99.90;;;1.68;100.00;95111.41;10506508;28;3300;-67
2022/12/04 18:13:52;;;;;;;;;;;2.90;99.90;;;1.66;100.00;95124.88;10494818;28;3418;-68
2022/12/04 18:18:55;;;;;;;;;;;2.80;99.90;;;1.61;100.00;95125.59;10507603;28;3458;-70
2022/12/04 18:23:57;;;;;;;;;;;2.80;99.90;;;1.41;100.00;95133.09;10508870;28;2876;-70
2022/12/04 18:29:00;;;;;;;;;;;2.60;99.90;;;1.58;100.00;95139.28;10503102;28;3267;-68
2022/12/04 18:34:08;;;;;;;;;;;2.60;99.90;;;1.66;100.00;95150.59;10502678;28;3266;-70
2022/12/04 18:39:11;;;;;;;;;;;2.70;99.90;;;1.76;100.00;95130.38;10513776;28;3256;-69
2022/12/04 18:44:13;;;;;;;;;;;2.80;99.90;;;1.80;100.00;95130.72;10521489;28;3333;-69
2022/12/04 18:49:16;;;;;;;;;;;2.80;99.90;;;1.83;100.00;95130.25;10511783;28;3319;-67
2022/12/04 18:54:19;;;;;;;;;;;2.90;99.90;;;1.85;100.00;95133.50;10514350;28;3405;-69
2022/12/04 18:59:22;;;;;;;;;;;2.90;99.90;;;1.80;100.00;95125.44;10518639;28;3358;-68
2022/12/04 19:04:24;;;;;;;;;;;2.80;99.90;;;1.74;100.00;95127.16;10519904;28;3387;-66
2022/12/04 19:09:28;;;;;;;;;;;2.80;99.90;;;1.77;100.00;95126.69;10501040;28;3273;-71
2022/12/04 19:14:50;;;;;;;;;;;2.80;99.90;;;1.76;100.00;95137.53;10517503;28;3585;-67
2022/12/04 19:19:53;;;;;;;;;;;2.90;99.90;;;1.71;100.00;95150.66;10515402;28;2891;-67
2022/12/04 19:24:56;;;;;;;;;;;2.80;99.90;;;1.81;100.00;95151.69;10516913;28;3247;-68
2022/12/04 19:29:59;;;;;;;;;;;2.90;99.90;;;1.90;100.00;95144.16;10517674;28;3335;-68
2022/12/04 19:35:03;;;;;;;;;;;2.90;99.90;;;1.84;100.00;95145.09;10519660;28;2851;-69
2022/12/04 19:40:05;;;;;;;;;;;2.90;99.90;;;1.77;100.00;95161.13;10516567;28;2800;-68
2022/12/04 19:45:08;;;;;;;;;;;2.90;99.90;;;1.83;100.00;95167.34;10526366;28;3331;-68
2022/12/04 19:50:11;;;;;;;;;;;2.80;99.90;;;1.75;100.00;95191.56;10516989;28;3245;-67
2022/12/04 19:55:14;;;;;;;;;;;2.80;99.90;;;1.77;100.00;95195.59;10522595;28;2939;-67
2022/12/04 20:00:17;;;;;;;;;;;;;;;1.96;100.00;95204.19;10514906;28;3275;-67
2022/12/04 20:05:20;;;;;;;;;;;;;;;1.88;100.00;95201.91;10532259;28;3318;-66
2022/12/04 20:10:23;;;;;;;;;;;;;;;1.84;100.00;95206.06;10532492;28;3367;-67
2022/12/04 20:15:27;;;;;;;;;;;;;;;1.87;100.00;95211.72;10534014;28;3335;-66
2022/12/04 20:20:30;;;;;;;;;;;;;;;1.87;100.00;95229.47;10526530;28;3262;-67
2022/12/04 20:25:35;;;;;;;;;;;;;;;1.81;100.00;95230.38;10529669;28;3394;-68
2022/12/04 20:30:38;;;;;;;;;;;;;;;1.72;100.00;95237.06;10529816;28;3445;-67
2022/12/04 20:35:41;;;;;;;;;;;;;;;1.65;100.00;95239.81;10530291;28;2887;-66
2022/12/04 20:40:45;;;;;;;;;;;;;;;1.58;100.00;95245.25;10531178;28;3347;-68
2022/12/04 20:45:49;;;;;;;;;;;;;;;1.61;100.00;95250.09;10520727;28;3422;-66
2022/12/04 20:50:52;;;;;;;;;;;;;;;1.65;100.00;95247.78;10525749;28;3338;-71
2022/12/04 20:55:55;;;;;;;;;;;;;;;1.64;100.00;95251.47;10532520;28;3313;-66
2022/12/04 21:00:58;;;;;;;;;;;;;;;1.65;100.00;95257.56;10528635;28;3351;-66
2022/12/04 21:06:02;;;;;;;;;;;;;;;1.56;100.00;95273.81;10522451;28;3271;-68
2022/12/04 21:11:05;;;;;;;;;;;;;;;1.66;100.00;95265.31;10521742;28;3342;-70
2022/12/04 21:16:08;;;;;;;;;;;;;;;1.71;100.00;95260.09;10526636;28;2887;-68
2022/12/04 21:21:11;;;;;;;;;;;;;;;1.52;100.00;95262.06;10523379;28;3312;-66
2022/12/04 21:26:14;;;;;;;;;;;;;;;1.60;100.00;95253.78;10521719;28;3265;-67
2022/12/04 21:31:27;;;;;;;;;;;;;;;1.54;100.00;95253.91;10537623;27;3313;-68
2022/12/04 21:36:30;;;;;;;;;;;;;;;1.45;100.00;95255.25;10513941;28;3011;-70
2022/12/04 21:46:55;;;;;;;;;;;;;;;1.51;100.00;95262.28;10504766;28;3333;-69
2022/12/04 21:51:58;;;;;;;;;;;;;;;1.47;100.00;95269.91;10518257;28;3313;-69
2022/12/04 21:57:01;;;;;;;;;;;;;;;1.40;100.00;95260.44;10515984;28;3289;-70
2022/12/04 22:02:04;;;;;;;;;;;;;;;1.44;100.00;95257.09;10552100;27;3334;-69
2022/12/04 22:07:08;;;;;;;;;;;;;;;1.25;100.00;95266.16;10514049;28;3422;-69
2022/12/04 22:12:11;;;;;;;;;;;;;;;1.19;100.00;95273.19;10509459;28;3268;-71
2022/12/04 22:17:36;;;;;;;;;;;;;;;1.39;100.00;95293.25;10514700;28;2871;-69
2022/12/04 22:22:40;;;;;;;;;;;;;;;1.32;100.00;95303.94;10515641;28;3339;-69
2022/12/04 22:27:43;;;;;;;;;;;;;;;1.21;100.00;95316.13;10512222;28;3275;-69
2022/12/04 22:32:47;;;;;;;;;;;;;;;1.18;100.00;95315.78;10515723;28;3323;-69
2022/12/04 22:37:50;;;;;;;;;;;;;;;1.13;100.00;95318.28;10499498;28;3192;-69
2022/12/04 22:42:54;;;;;;;;;;;;;;;1.15;100.00;95332.13;10514456;28;3445;-70
2022/12/04 22:47:57;;;;;;;;;;;;;;;1.30;100.00;95324.56;10507813;28;3287;-72
2022/12/04 22:53:00;;;;;;;;;;;;;;;1.36;100.00;95328.94;10521280;28;2824;-68
2022/12/04 22:58:03;;;;;;;;;;;;;;;1.44;100.00;95333.91;10503248;28;2875;-69
2022/12/04 23:03:07;;;;;;;;;;;;;;;1.50;100.00;95338.28;10500381;28;3372;-69
2022/12/04 23:08:20;;;;;;;;;;;;;;;1.58;100.00;95330.00;10505134;28;3272;-70
2022/12/04 23:13:24;;;;;;;;;;;;;;;1.60;100.00;95327.16;10517522;28;3280;-69
2022/12/04 23:18:27;;;;;;;;;;;;;;;1.59;100.00;95331.66;10488778;28;3349;-68
2022/12/04 23:23:30;;;;;;;;;;;;;;;1.49;100.00;95312.84;10500207;28;3338;-68
2022/12/04 23:28:33;;;;;;;;;;;;;;;1.58;100.00;95314.13;10510749;28;2858;-70
2022/12/04 23:33:37;;;;;;;;;;;;;;;1.46;100.00;95329.19;10513502;28;3314;-69
2022/12/04 23:38:40;;;;;;;;;;;;;;;1.49;100.00;95341.19;10524980;28;3341;-74
2022/12/04 23:43:43;;;;;;;;;;;;;;;1.39;100.00;95341.72;10498075;28;3334;-67
2022/12/04 23:48:49;;;;;;;;;;;;;;;1.24;100.00;95358.03;10518986;28;2876;-68
2022/12/04 23:53:53;;;;;;;;;;;;;;;1.22;100.00;95351.34;10510720;28;3296;-69
2022/12/04 23:58:56;;;;;;;;;;;;;;;1.33;100.00;95355.88;10504047;28;3474;-69
